Caimancito, Argentina
Current Conditions -  °F | °C
As of 6:00 PM on Wednesday 22 Oct 2014 (Local Time) from SASJ Reporting Station
Thunderstorm Thunderstorm  
Wind Chill: 81°   Ceiling: 6000
Heat Index: 81°   Visibility: 4mi
Dew Point: 61°   Wind: 3mph
Humidity: 51%   Direction: 320°NW
Pressure: 29.97"   Gusts: NA
Location:  23.73°S, 64.58°W
Report Text: SASJ 222100Z 32003KT 7000 TSRA SCT038FEW050CB OVC060 27/16 Q1015
Loading
Personal Weather Stations






























Interactive Weather Map
Tropical Storm Tracking
New forecast layout! Learn more

10-Day Weather Forecast

Advertisements
Track Severe Weather on mobile